createdAt,value
2024-02-26T18:31:48.755Z,5.71
2024-02-26T18:34:16.063Z,5.82
2024-02-26T18:36:44.626Z,5.86
2024-02-26T18:39:12.117Z,5.90
2024-02-26T18:41:39.172Z,5.96
2024-02-26T18:44:06.268Z,6.00
2024-02-26T18:46:35.421Z,5.98
2024-02-26T18:49:02.708Z,6.08
2024-02-26T18:51:29.852Z,6.07
2024-02-26T18:53:56.946Z,6.03
2024-02-26T18:56:24.258Z,6.04
2024-02-26T18:58:51.457Z,5.98
2024-02-26T19:01:18.542Z,6.00
2024-02-26T19:03:45.881Z,6.01
2024-02-26T19:06:17.656Z,5.94
2024-02-26T19:08:44.833Z,5.93
2024-02-26T19:11:12.083Z,5.95
2024-02-26T19:13:43.499Z,6.06
2024-02-26T19:16:10.548Z,6.03
2024-02-26T19:18:37.886Z,5.98
2024-02-26T19:21:05.471Z,6.13
2024-02-26T19:23:34.693Z,6.13
2024-02-26T19:26:01.984Z,6.04
2024-02-26T19:28:29.066Z,6.01
2024-02-26T19:30:56.155Z,6.03
2024-02-26T19:33:23.422Z,6.05
2024-02-26T19:35:50.557Z,6.05
2024-02-26T19:38:21.049Z,5.96
2024-02-26T19:40:48.374Z,6.11
2024-02-26T19:43:16.386Z,6.07
2024-02-26T19:45:43.696Z,6.00
2024-02-26T19:48:10.927Z,6.06
2024-02-26T19:50:38.761Z,6.13
2024-02-26T19:53:06.086Z,6.07
2024-02-26T19:55:34.752Z,5.99
2024-02-26T19:58:04.233Z,6.03
2024-02-26T20:00:32.013Z,6.06
2024-02-26T20:02:59.231Z,5.96
2024-02-26T20:05:26.417Z,5.96
2024-02-26T20:07:53.569Z,5.95
2024-02-26T20:10:20.673Z,5.88
2024-02-26T20:12:47.898Z,5.96
2024-02-26T20:15:15.062Z,5.93
2024-02-26T20:17:42.224Z,5.90
2024-02-26T20:20:09.700Z,5.95
2024-02-26T20:27:11.522Z,5.94
2024-02-26T20:29:39.877Z,5.92
2024-02-26T20:32:07.320Z,5.87
2024-02-26T20:34:34.787Z,5.92
2024-02-26T20:37:03.173Z,5.86
2024-02-26T20:39:30.527Z,5.91
2024-02-26T20:41:57.883Z,5.76
2024-02-26T20:44:24.983Z,5.82
2024-02-26T20:46:56.757Z,5.82
2024-02-26T20:49:24.044Z,5.74
2024-02-26T20:51:51.171Z,5.69
2024-02-26T20:54:18.809Z,5.70
2024-02-26T20:56:46.939Z,5.67
2024-02-26T20:59:14.348Z,5.61
2024-02-26T21:01:41.487Z,5.57
2024-02-26T21:04:09.006Z,5.57
2024-02-26T21:06:36.950Z,5.50
2024-02-26T21:09:10.130Z,5.55
2024-02-26T21:11:37.480Z,5.64
2024-02-26T21:14:05.286Z,5.54
2024-02-26T21:16:32.366Z,5.53
2024-02-26T21:19:00.727Z,5.61
2024-02-26T21:21:29.587Z,5.43
2024-02-26T21:23:58.321Z,5.32
2024-02-26T21:26:26.642Z,5.32
2024-02-26T21:28:53.885Z,5.32
2024-02-26T21:31:21.053Z,5.43
2024-02-26T21:33:48.784Z,5.52
2024-02-26T21:36:16.173Z,5.38
2024-02-26T21:38:50.181Z,5.33
2024-02-26T21:41:19.936Z,5.01
2024-02-26T21:43:51.115Z,5.03
2024-02-26T21:46:18.210Z,5.24
2024-02-26T21:48:45.355Z,5.17
2024-02-26T21:51:12.803Z,5.09
2024-02-26T21:53:40.198Z,4.99
2024-02-26T21:56:08.573Z,4.95
2024-02-26T21:58:36.185Z,4.77
2024-02-26T22:01:03.769Z,5.16
2024-02-26T22:03:31.175Z,4.90
2024-02-26T22:05:58.310Z,4.67
2024-02-26T22:08:25.687Z,4.58
2024-02-26T22:10:54.637Z,4.32
2024-02-26T22:13:22.304Z,4.57
2024-02-26T22:15:49.432Z,4.62
2024-02-26T22:18:16.685Z,4.67
2024-02-26T22:20:44.905Z,4.68
2024-02-26T22:23:11.977Z,4.48
2024-02-26T22:25:39.437Z,4.30
2024-02-26T22:28:06.518Z,4.32
2024-02-26T22:30:34.153Z,4.21
2024-02-26T22:33:01.554Z,4.44
2024-02-26T22:35:28.740Z,4.43
2024-02-26T22:37:55.816Z,4.56
2024-02-26T22:40:23.010Z,4.46
2024-02-26T22:42:56.627Z,4.37
2024-02-26T22:45:25.544Z,4.15
2024-02-26T22:47:55.002Z,4.03
2024-02-26T22:50:22.223Z,4.24
2024-02-26T22:52:54.731Z,4.08
2024-02-26T22:55:25.259Z,4.01
2024-02-26T22:57:56.443Z,3.90
2024-02-26T23:00:33.710Z,3.88
2024-02-26T23:03:01.694Z,4.25
2024-02-26T23:05:29.163Z,3.99
2024-02-26T23:07:56.987Z,3.83
2024-02-26T23:10:24.702Z,3.68
2024-02-26T23:12:55.161Z,3.44
2024-02-26T23:15:22.776Z,3.72
2024-02-26T23:17:55.397Z,3.77
2024-02-26T23:20:23.364Z,3.87
2024-02-26T23:22:55.451Z,3.50
2024-02-26T23:25:22.576Z,3.35
2024-02-26T23:27:52.475Z,3.56
2024-02-26T23:30:20.843Z,3.60
2024-02-26T23:32:48.250Z,3.79
2024-02-26T23:35:15.386Z,3.79
2024-02-26T23:37:42.443Z,3.47
2024-02-26T23:40:09.494Z,3.32
2024-02-26T23:42:37.960Z,3.33
2024-02-26T23:45:06.488Z,3.35
2024-02-26T23:47:34.224Z,3.54
2024-02-26T23:50:01.313Z,3.50
2024-02-26T23:52:28.384Z,3.51
2024-02-26T23:54:55.515Z,3.51
2024-02-26T23:57:22.608Z,3.27
2024-02-26T23:59:49.791Z,3.14
